Time;durP1;ratioP1;P1;durP2;ratioP2;P2;SDS_P1;SDS_P2;PMS_P1;PMS_P2;Temp;Humidity;BMP_temperature;BMP_pressure;BME280_temperature;BME280_humidity;BME280_pressure;Samples;Min_cycle;Max_cycle;Signal;HPM_P1;HPM_P2
2024/04/03 00:01:04;;;;;;;;;;;;;;;9.75;95.09;100715.79;106855;1275;22495;-52
2024/04/03 00:03:31;;;;;;;;;;;;;;;9.77;95.20;100716.58;106832;1275;22675;-51
2024/04/03 00:05:57;;;;;;;;;;;;;;;9.80;95.19;100715.71;106908;1275;24570;-53
2024/04/03 00:08:27;;;;;;;;;;;;;;;9.81;95.24;100708.96;106895;1275;24099;-51
2024/04/03 00:10:53;;;;;;;;;;;;;;;9.81;95.16;100711.41;106831;1274;25873;-50
2024/04/03 00:13:20;;;;;;;;;;;;;;;9.80;95.24;100709.88;107014;1275;22492;-51
2024/04/03 00:15:48;;;;;;;;;;;;;;;9.78;95.31;100705.39;107030;1274;23906;-53
2024/04/03 00:18:14;;;;;;;;;;;;;;;9.76;95.48;100703.55;107008;1275;22503;-50
2024/04/03 00:20:41;;;;;;;;;;;;;;;9.77;95.77;100704.77;106876;1275;25263;-50
2024/04/03 00:23:08;;;;;;;;;;;;;;;9.77;95.81;100700.48;106860;1275;24167;-49
2024/04/03 00:25:34;;;;;;;;;;;;;;;9.80;95.96;100697.36;106994;1275;22663;-52
2024/04/03 00:28:03;;;;;;;;;;;;;;;9.81;96.18;100696.77;106950;1275;22642;-52
2024/04/03 00:30:29;;;;;;;;;;;;;;;9.82;96.22;100691.25;107022;1275;22675;-52
2024/04/03 00:32:56;;;;;;;;;;;;;;;9.84;96.38;100694.31;106917;1275;23898;-49
2024/04/03 00:35:22;;;;;;;;;;;;;;;9.84;96.32;100694.65;106902;1275;22494;-51
2024/04/03 00:37:49;;;;;;;;;;;;;;;9.83;96.27;100692.73;106839;1274;24131;-52
2024/04/03 00:40:18;;;;;;;;;;;;;;;9.82;96.42;100688.60;106835;1274;22494;-49
2024/04/03 00:42:45;;;;;;;;;;;;;;;9.81;96.59;100687.26;106878;1275;25858;-53
2024/04/03 00:45:14;;;;;;;;;;;;;;;9.82;96.82;100689.98;107019;1275;24199;-51
2024/04/03 00:47:40;;;;;;;;;;;;;;;9.84;96.93;100691.65;106888;1274;25697;-53
2024/04/03 00:50:07;;;;;;;;;;;;;;;9.86;97.03;100691.20;106918;1274;25326;-52
2024/04/03 00:52:33;;;;;;;;;;;;;;;9.89;97.11;100693.52;106992;1274;22629;-50
2024/04/03 00:55:00;;;;;;;;;;;;;;;9.91;97.26;100691.27;106866;1275;25878;-51
2024/04/03 00:57:29;;;;;;;;;;;;;;;9.92;97.26;100688.73;106789;1275;25259;-52
2024/04/03 00:59:56;;;;;;;;;;;;;;;9.92;97.27;100687.67;106929;1275;25388;-45
2024/04/03 01:02:23;;;;;;;;;;;;;;;9.92;97.29;100688.41;106840;1275;22516;-48
2024/04/03 01:04:50;;;;;;;;;;;;;;;9.92;97.45;100687.16;106849;1274;25909;-45
2024/04/03 01:07:16;;;;;;;;;;;;;;;9.93;97.54;100686.56;106851;1274;22500;-47
2024/04/03 01:09:43;;;;;;;;;;;;;;;9.95;97.55;100681.53;107064;1256;22738;-46
2024/04/03 01:12:09;;;;;;;;;;;;;;;9.96;97.77;100677.06;106980;1275;24194;-47
2024/04/03 01:14:35;;;;;;;;;;;;;;;9.98;97.86;100676.41;107003;1275;25371;-45
2024/04/03 01:17:02;;;;;;;;;;;;;;;10.00;97.87;100673.30;106975;1275;25208;-47
2024/04/03 01:19:29;;;;;;;;;;;;;;;10.00;97.87;100672.94;106997;1275;23885;-46
2024/04/03 01:21:56;;;;;;;;;;;;;;;10.00;97.95;100670.80;107087;1275;22505;-48
2024/04/03 01:24:23;;;;;;;;;;;;;;;10.01;98.10;100671.81;107154;1274;22535;-46
2024/04/03 01:26:52;;;;;;;;;;;;;;;10.01;97.85;100666.55;107085;1275;22662;-47
2024/04/03 01:29:21;;;;;;;;;;;;;;;10.00;97.86;100665.88;106840;1275;22493;-47
2024/04/03 01:31:47;;;;;;;;;;;;;;;10.01;97.82;100662.63;106870;1274;22437;-48
2024/04/03 01:34:14;;;;;;;;;;;;;;;10.03;97.72;100658.66;106822;1274;22493;-48
2024/04/03 01:36:40;;;;;;;;;;;;;;;10.04;97.57;100656.27;107076;1275;25166;-46
2024/04/03 01:39:07;;;;;;;;;;;;;;;10.06;97.45;100650.01;107092;1275;25437;-44
2024/04/03 01:41:33;;;;;;;;;;;;;;;10.07;97.31;100646.42;106836;1275;22499;-44
2024/04/03 01:44:00;;;;;;;;;;;;;;;10.07;97.33;100644.10;106897;1274;22545;-45
2024/04/03 01:46:27;;;;;;;;;;;;;;;10.07;97.19;100640.75;106978;1275;22434;-45
2024/04/03 01:48:53;;;;;;;;;;;;;;;10.07;97.07;100638.11;106890;1274;23924;-46
2024/04/03 01:51:20;;;;;;;;;;;;;;;10.07;96.96;100637.38;107034;1275;23418;-45
2024/04/03 01:53:47;;;;;;;;;;;;;;;10.07;96.92;100640.02;107019;1275;22523;-44
2024/04/03 01:56:13;;;;;;;;;;;;;;;10.08;96.91;100635.59;106831;1274;25399;-46
2024/04/03 01:58:42;;;;;;;;;;;;;;;10.08;96.87;100636.12;106853;1274;22884;-45
2024/04/03 02:01:08;;;;;;;;;;;;;;;10.08;96.99;100635.61;106842;1274;22793;-45
2024/04/03 02:03:35;;;;;;;;;;;;;;;10.07;97.23;100630.89;106917;1275;22428;-49
2024/04/03 02:06:02;;;;;;;;;;;;;;;10.04;97.30;100630.84;106754;1275;338090;-46
2024/04/03 02:08:28;;;;;;;;;;;;;;;10.03;97.59;100631.10;106903;1275;25344;-44
2024/04/03 02:10:58;;;;;;;;;;;;;;;10.00;97.63;100624.19;107035;1275;25333;-45
2024/04/03 02:13:24;;;;;;;;;;;;;;;9.97;97.87;100621.56;106960;1275;22698;-45
2024/04/03 02:15:53;;;;;;;;;;;;;;;9.94;98.20;100619.61;106974;1272;25423;-44
2024/04/03 02:18:20;;;;;;;;;;;;;;;9.94;98.41;100614.32;106971;1275;25534;-45
2024/04/03 02:20:47;;;;;;;;;;;;;;;9.96;98.55;100609.09;107014;1275;22661;-47
2024/04/03 02:23:14;;;;;;;;;;;;;;;9.97;98.54;100604.24;106981;1275;25407;-46
2024/04/03 02:25:43;;;;;;;;;;;;;;;9.98;98.53;100602.60;106833;1275;22490;-45
2024/04/03 02:28:10;;;;;;;;;;;;;;;10.02;98.66;100603.26;106926;1275;23447;-45
2024/04/03 02:30:36;;;;;;;;;;;;;;;10.05;98.54;100600.98;107004;1275;22786;-45
2024/04/03 02:33:03;;;;;;;;;;;;;;;10.07;98.38;100598.39;107014;1275;22724;-48
2024/04/03 02:35:30;;;;;;;;;;;;;;;10.06;98.41;100594.02;106834;1275;23762;-45
2024/04/03 02:37:56;;;;;;;;;;;;;;;10.06;98.26;100595.27;106901;1275;22626;-47
2024/04/03 02:40:23;;;;;;;;;;;;;;;10.05;98.27;100591.27;106967;1275;23927;-45
2024/04/03 02:42:49;;;;;;;;;;;;;;;10.03;98.32;100586.77;107004;1275;25322;-45
2024/04/03 02:45:16;;;;;;;;;;;;;;;10.00;98.32;100578.83;106881;1275;22481;-44
2024/04/03 02:47:42;;;;;;;;;;;;;;;10.01;98.53;100576.67;106984;1274;22456;-46
2024/04/03 02:50:09;;;;;;;;;;;;;;;10.02;98.56;100576.42;107001;1275;24223;-47
2024/04/03 02:52:35;;;;;;;;;;;;;;;10.02;98.54;100575.55;106976;1275;22951;-45
2024/04/03 02:55:04;;;;;;;;;;;;;;;10.01;98.59;100573.48;107079;1275;23875;-46
2024/04/03 02:57:31;;;;;;;;;;;;;;;10.01;98.70;100567.63;106937;1275;22645;-45
2024/04/03 02:59:58;;;;;;;;;;;;;;;10.04;98.72;100566.77;106849;1275;24197;-46
2024/04/03 03:02:24;;;;;;;;;;;;;;;10.04;98.56;100560.74;106828;1275;22602;-45
2024/04/03 03:04:51;;;;;;;;;;;;;;;10.04;98.51;100556.55;107032;1274;22464;-45
2024/04/03 03:07:17;;;;;;;;;;;;;;;10.02;98.53;100554.18;106982;1275;25384;-46
2024/04/03 03:09:44;;;;;;;;;;;;;;;10.03;98.58;100551.45;106805;1275;22614;-45
2024/04/03 03:12:10;;;;;;;;;;;;;;;10.04;98.58;100547.16;106967;1275;22580;-45
2024/04/03 03:14:37;;;;;;;;;;;;;;;10.06;98.63;100538.73;106934;1274;25455;-45
2024/04/03 03:17:04;;;;;;;;;;;;;;;10.08;98.41;100540.95;106874;1275;22747;-47
2024/04/03 03:19:30;;;;;;;;;;;;;;;10.07;98.30;100534.29;107090;1274;22497;-46
2024/04/03 03:21:57;;;;;;;;;;;;;;;10.06;98.16;100533.27;107066;1275;22523;-50
2024/04/03 03:24:23;;;;;;;;;;;;;;;10.05;98.06;100532.29;106928;1275;22496;-53
2024/04/03 03:26:50;;;;;;;;;;;;;;;10.02;98.07;100525.95;106731;1274;24619;-52
2024/04/03 03:29:17;;;;;;;;;;;;;;;9.98;98.06;100517.55;107053;1275;22639;-52
2024/04/03 03:31:43;;;;;;;;;;;;;;;9.95;98.18;100510.80;107089;1275;25217;-51
2024/04/03 03:34:10;;;;;;;;;;;;;;;9.95;98.23;100506.80;106997;1274;22538;-49
2024/04/03 03:36:36;;;;;;;;;;;;;;;9.93;98.25;100507.98;106948;1275;22622;-49
2024/04/03 03:39:05;;;;;;;;;;;;;;;9.91;98.44;100509.52;107021;1275;22806;-50
2024/04/03 03:41:35;;;;;;;;;;;;;;;9.87;98.42;100510.59;107035;1275;22509;-51
2024/04/03 03:44:02;;;;;;;;;;;;;;;9.84;98.50;100509.52;106957;1275;22462;-49
2024/04/03 03:46:28;;;;;;;;;;;;;;;9.82;98.66;100507.50;106816;1275;22445;-49
2024/04/03 03:54:25;;;;;;;;;;;;;;;9.80;98.87;100503.22;106994;1274;22444;-49
2024/04/03 03:56:52;;;;;;;;;;;;;;;9.80;98.83;100503.58;106825;1275;25262;-49
2024/04/03 03:59:18;;;;;;;;;;;;;;;9.80;99.02;100503.22;106852;1275;22696;-48
2024/04/03 04:01:46;;;;;;;;;;;;;;;9.80;98.96;100503.58;106815;1275;22506;-50
2024/04/03 04:04:12;;;;;;;;;;;;;;;9.80;99.06;100497.41;106950;1275;23883;-50
2024/04/03 04:06:39;;;;;;;;;;;;;;;9.80;99.13;100493.88;107060;1263;25323;-49
2024/04/03 04:09:05;;;;;;;;;;;;;;;9.81;99.16;100494.36;106892;1275;23846;-49
2024/04/03 04:11:32;;;;;;;;;;;;;;;9.80;99.16;100489.84;106865;1275;25386;-51
2024/04/03 04:13:58;;;;;;;;;;;;;;;9.77;99.19;100483.63;106869;1274;22490;-51
2024/04/03 04:16:25;;;;;;;;;;;;;;;9.77;99.21;100485.61;106865;1274;25221;-52
2024/04/03 04:18:51;;;;;;;;;;;;;;;9.76;99.29;100481.77;106834;1275;24308;-49
2024/04/03 04:21:18;;;;;;;;;;;;;;;9.76;99.37;100479.84;106844;1274;23805;-52
2024/04/03 04:23:45;;;;;;;;;;;;;;;9.76;99.49;100473.86;106853;1275;23871;-51
2024/04/03 04:26:11;;;;;;;;;;;;;;;9.75;99.48;100475.29;106818;1275;24199;-51
2024/04/03 04:28:38;;;;;;;;;;;;;;;9.74;99.64;100475.56;106925;1275;24279;-52
2024/04/03 04:31:05;;;;;;;;;;;;;;;9.74;99.77;100475.89;107009;1274;24196;-52
2024/04/03 04:33:32;;;;;;;;;;;;;;;9.74;99.72;100473.74;106936;1274;22489;-50
2024/04/03 04:35:59;;;;;;;;;;;;;;;9.73;99.70;100474.16;106862;1275;24136;-50
2024/04/03 04:38:26;;;;;;;;;;;;;;;9.72;99.67;100471.98;106902;1274;22439;-49
2024/04/03 04:41:02;;;;;;;;;;;;;;;9.69;99.75;100469.98;106958;1275;24174;-53
2024/04/03 04:43:32;;;;;;;;;;;;;;;9.67;99.89;100469.60;106856;1274;25280;-51
2024/04/03 04:46:02;;;;;;;;;;;;;;;9.64;99.89;100467.64;106865;1275;22754;-50
2024/04/03 04:48:29;;;;;;;;;;;;;;;9.62;99.97;100464.56;106869;1275;22507;-50
2024/04/03 04:50:56;;;;;;;;;;;;;;;9.62;100.00;100465.46;106786;1274;25263;-50
2024/04/03 04:53:23;;;;;;;;;;;;;;;9.62;100.00;100464.08;106860;1274;22633;-50
2024/04/03 04:55:56;;;;;;;;;;;;;;;9.62;100.00;100461.23;106887;1274;25920;-51
2024/04/03 04:58:23;;;;;;;;;;;;;;;9.62;100.00;100458.58;106880;1275;23897;-53
2024/04/03 05:00:50;;;;;;;;;;;;;;;9.62;100.00;100457.89;106832;1275;22532;-52
2024/04/03 05:03:17;;;;;;;;;;;;;;;9.61;100.00;100455.09;106959;1275;25243;-53
2024/04/03 05:05:46;;;;;;;;;;;;;;;9.62;100.00;100447.67;106926;1275;24164;-52
2024/04/03 05:08:12;;;;;;;;;;;;;;;9.61;100.00;100448.56;106885;1275;22489;-54
2024/04/03 05:10:39;;;;;;;;;;;;;;;9.60;100.00;100449.14;106961;1274;25380;-51
2024/04/03 05:13:05;;;;;;;;;;;;;;;9.60;100.00;100446.73;106819;1275;22648;-51
2024/04/03 05:15:34;;;;;;;;;;;;;;;9.60;100.00;100447.43;106839;1275;22925;-50
2024/04/03 05:18:01;;;;;;;;;;;;;;;9.61;100.00;100445.05;106846;1274;24176;-52
2024/04/03 05:20:30;;;;;;;;;;;;;;;9.62;100.00;100442.52;106855;1275;22789;-51
2024/04/03 05:22:56;;;;;;;;;;;;;;;9.62;100.00;100437.23;106822;1274;25281;-52
2024/04/03 05:25:23;;;;;;;;;;;;;;;9.62;100.00;100433.55;106983;1275;24336;-51
2024/04/03 05:27:49;;;;;;;;;;;;;;;9.64;100.00;100434.27;106977;1274;22510;-51
2024/04/03 05:30:16;;;;;;;;;;;;;;;9.65;100.00;100429.84;106921;1275;25837;-50
2024/04/03 05:32:43;;;;;;;;;;;;;;;9.64;100.00;100428.45;106958;1274;22764;-52
2024/04/03 05:35:09;;;;;;;;;;;;;;;9.65;100.00;100428.03;106948;1275;22527;-52
2024/04/03 05:37:39;;;;;;;;;;;;;;;9.66;100.00;100426.20;106825;1272;22628;-53
2024/04/03 05:40:06;;;;;;;;;;;;;;;9.65;100.00;100421.20;106834;1275;22502;-49
2024/04/03 05:42:33;;;;;;;;;;;;;;;9.62;100.00;100417.09;107026;1275;24572;-51
2024/04/03 05:44:59;;;;;;;;;;;;;;;9.62;100.00;100416.23;106984;1274;22488;-52
2024/04/03 05:47:26;;;;;;;;;;;;;;;9.63;100.00;100414.96;106996;1274;23875;-52
2024/04/03 05:49:53;;;;;;;;;;;;;;;9.64;100.00;100417.70;106849;1275;25396;-53
2024/04/03 05:52:21;;;;;;;;;;;;;;;9.67;100.00;100419.50;106998;1274;25282;-50
2024/04/03 05:54:48;;;;;;;;;;;;;;;9.68;100.00;100411.83;107063;1274;25334;-51
2024/04/03 05:57:16;;;;;;;;;;;;;;;9.71;100.00;100410.95;106866;1274;22492;-50
2024/04/03 05:59:42;;;;;;;;;;;;;;;9.72;100.00;100408.98;106877;1274;22697;-51
2024/04/03 06:02:09;;;;;;;;;;;;;;;9.74;100.00;100413.25;106903;1275;22458;-53
2024/04/03 06:04:39;;;;;;;;;;;;;;;9.73;100.00;100414.36;106865;1274;25237;-52
2024/04/03 06:07:06;;;;;;;;;;;;;;;9.71;100.00;100413.62;106990;1274;22995;-52
2024/04/03 06:09:32;;;;;;;;;;;;;;;9.68;100.00;100412.20;107045;1274;23926;-53
2024/04/03 06:11:59;;;;;;;;;;;;;;;9.67;100.00;100414.00;106797;1274;22845;-53
2024/04/03 06:14:25;;;;;;;;;;;;;;;9.66;100.00;100413.00;106841;1274;24135;-53
2024/04/03 06:16:52;;;;;;;;;;;;;;;9.65;100.00;100411.26;106824;1274;25498;-53
2024/04/03 06:19:19;;;;;;;;;;;;;;;9.66;100.00;100410.38;106858;1274;24372;-51
2024/04/03 06:21:45;;;;;;;;;;;;;;;9.65;100.00;100407.56;106843;1275;22497;-50
2024/04/03 06:24:12;;;;;;;;;;;;;;;9.66;100.00;100408.40;106862;1275;25405;-53
2024/04/03 06:26:38;;;;;;;;;;;;;;;9.67;100.00;100405.89;106873;1274;22537;-49
2024/04/03 06:29:05;;;;;;;;;;;;;;;9.69;100.00;100403.11;107103;1274;25395;-51
2024/04/03 06:31:31;;;;;;;;;;;;;;;9.71;100.00;100406.00;107093;1274;25220;-52
2024/04/03 06:33:59;;;;;;;;;;;;;;;9.76;100.00;100408.73;106950;1275;22601;-54
2024/04/03 06:36:26;;;;;;;;;;;;;;;9.79;100.00;100407.47;106920;1274;23013;-53
2024/04/03 06:38:53;;;;;;;;;;;;;;;9.79;100.00;100399.19;106904;1267;22499;-53
2024/04/03 06:41:22;;;;;;;;;;;;;;;9.79;100.00;100398.10;107009;1274;25340;-53
2024/04/03 06:43:48;;;;;;;;;;;;;;;9.80;100.00;100400.54;106934;1275;22933;-53
2024/04/03 06:46:15;;;;;;;;;;;;;;;9.80;100.00;100397.17;107013;1275;23928;-52
2024/04/03 06:48:44;;;;;;;;;;;;;;;9.82;100.00;100398.13;106981;1274;24385;-45
2024/04/03 06:51:11;;;;;;;;;;;;;;;9.84;100.00;100393.73;107127;1274;24838;-47
2024/04/03 06:53:38;;;;;;;;;;;;;;;9.88;100.00;100393.71;107101;1274;25221;-46
2024/04/03 06:56:05;;;;;;;;;;;;;;;9.91;100.00;100390.52;107022;1275;22476;-47
2024/04/03 06:58:41;;;;;;;;;;;;;;;9.95;100.00;100387.82;107097;1275;22497;-47
2024/04/03 07:01:08;;;;;;;;;;;;;;;9.99;100.00;100383.98;107000;1270;24167;-48
2024/04/03 07:03:37;;;;;;;;;;;;;;;10.05;100.00;100386.80;106997;1274;23343;-45
2024/04/03 07:06:07;;;;;;;;;;;;;;;10.09;100.00;100385.34;106838;1274;22888;-47
2024/04/03 07:08:34;;;;;;;;;;;;;;;10.11;100.00;100384.73;106907;1275;22746;-45
2024/04/03 07:11:06;;;;;;;;;;;;;;;10.13;100.00;100388.27;106882;1275;24283;-46
2024/04/03 07:13:33;;;;;;;;;;;;;;;10.14;100.00;100387.31;106940;1274;24619;-46
2024/04/03 07:15:59;;;;;;;;;;;;;;;10.15;100.00;100385.37;106837;1275;24199;-47
2024/04/03 07:18:26;;;;;;;;;;;;;;;10.15;100.00;100380.95;106866;1273;23908;-46
2024/04/03 07:20:56;;;;;;;;;;;;;;;10.15;100.00;100381.45;106813;1274;25343;-46
2024/04/03 07:23:26;;;;;;;;;;;;;;;10.16;100.00;100375.40;107262;1267;25651;-45
2024/04/03 07:25:56;;;;;;;;;;;;;;;10.18;100.00;100377.23;106978;1264;25351;-46
2024/04/03 07:28:23;;;;;;;;;;;;;;;10.21;100.00;100372.41;107088;1275;23894;-46
2024/04/03 07:30:50;;;;;;;;;;;;;;;10.23;100.00;100369.64;107042;1274;25167;-46
2024/04/03 07:33:17;;;;;;;;;;;;;;;10.27;100.00;100370.84;106909;1275;24147;-45
2024/04/03 07:35:44;;;;;;;;;;;;;;;10.30;100.00;100372.96;107163;1274;22514;-51
2024/04/03 07:38:11;;;;;;;;;;;;;;;10.32;100.00;100372.84;107034;1264;22493;-45
2024/04/03 07:40:37;;;;;;;;;;;;;;;10.35;100.00;100376.16;106967;1274;22524;-45
2024/04/03 07:43:07;;;;;;;;;;;;;;;10.35;100.00;100375.64;106838;1267;22546;-46
2024/04/03 07:45:33;;;;;;;;;;;;;;;10.34;100.00;100375.56;106961;1275;22512;-45
2024/04/03 07:48:00;;;;;;;;;;;;;;;10.32;100.00;100371.27;106853;1274;22524;-46
2024/04/03 07:50:28;;;;;;;;;;;;;;;10.30;100.00;100368.38;107033;1275;24241;-47
2024/04/03 07:52:54;;;;;;;;;;;;;;;10.31;100.00;100369.93;106928;1274;22930;-46
2024/04/03 07:55:21;;;;;;;;;;;;;;;10.30;100.00;100371.20;106944;1274;22918;-45
2024/04/03 07:57:50;;;;;;;;;;;;;;;10.30;100.00;100368.20;106969;1275;22435;-46
2024/04/03 08:00:18;;;;;;;;;;;;;;;10.31;100.00;100369.59;106911;1275;25362;-45
2024/04/03 08:02:45;;;;;;;;;;;;;;;10.31;100.00;100370.06;107015;1274;24176;-47
2024/04/03 08:05:12;;;;;;;;;;;;;;;10.31;100.00;100365.13;106866;1274;22803;-46
2024/04/03 08:07:39;;;;;;;;;;;;;;;10.33;100.00;100363.59;106939;1275;22710;-48
2024/04/03 08:10:06;;;;;;;;;;;;;;;10.35;100.00;100359.76;107043;1275;25265;-52
2024/04/03 08:12:36;;;;;;;;;;;;;;;10.37;100.00;100363.88;107224;1274;25440;-50
2024/04/03 08:15:03;;;;;;;;;;;;;;;10.40;100.00;100364.39;106896;1275;22452;-52
2024/04/03 08:17:29;;;;;;;;;;;;;;;10.41;100.00;100364.69;107018;1274;23895;-51
2024/04/03 08:19:56;;;;;;;;;;;;;;;10.42;100.00;100363.17;107031;1274;24161;-46
2024/04/03 08:22:23;;;;;;;;;;;;;;;10.45;100.00;100365.30;106978;1275;22486;-46
2024/04/03 08:24:50;;;;;;;;;;;;;;;10.50;100.00;100366.79;106828;1274;22466;-45
2024/04/03 08:27:18;;;;;;;;;;;;;;;10.55;100.00;100368.74;106896;1272;22615;-46
2024/04/03 08:29:48;;;;;;;;;;;;;;;10.59;100.00;100367.23;106860;1274;22515;-47
2024/04/03 08:32:17;;;;;;;;;;;;;;;10.61;100.00;100364.31;106949;1275;22505;-46
2024/04/03 08:34:44;;;;;;;;;;;;;;;10.62;100.00;100362.46;107036;1274;22840;-45
2024/04/03 08:37:14;;;;;;;;;;;;;;;10.63;100.00;100364.34;107148;1274;24225;-46
2024/04/03 08:39:40;;;;;;;;;;;;;;;10.63;99.98;100367.13;106952;1275;22764;-46
2024/04/03 08:42:09;;;;;;;;;;;;;;;10.64;99.99;100369.42;106868;1274;22492;-51
2024/04/03 08:44:35;;;;;;;;;;;;;;;10.63;99.70;100370.50;107081;1274;22525;-47
2024/04/03 08:47:02;;;;;;;;;;;;;;;10.63;99.65;100372.48;106989;1274;24170;-46
2024/04/03 08:49:30;;;;;;;;;;;;;;;10.62;99.69;100371.30;107012;1274;22465;-45
2024/04/03 08:52:02;;;;;;;;;;;;;;;10.61;99.33;100368.22;106844;1275;22467;-46
2024/04/03 08:54:32;;;;;;;;;;;;;;;10.60;99.50;100370.04;107004;1275;22472;-46
2024/04/03 08:57:01;;;;;;;;;;;;;;;10.59;99.39;100367.27;107014;1274;22539;-45
2024/04/03 08:59:31;;;;;;;;;;;;;;;10.61;99.53;100365.70;106881;1275;25392;-45
2024/04/03 09:01:58;;;;;;;;;;;;;;;10.62;99.56;100361.20;106849;1273;22667;-45
2024/04/03 09:04:25;;;;;;;;;;;;;;;10.64;99.75;100361.45;106970;1274;23817;-45
2024/04/03 09:06:54;;;;;;;;;;;;;;;10.66;99.73;100364.35;106952;1275;22579;-46
2024/04/03 09:09:25;;;;;;;;;;;;;;;10.65;99.64;100362.94;106813;1274;22424;-47
2024/04/03 09:12:05;;;;;;;;;;;;;;;10.65;99.67;100360.65;106916;1274;24248;-47
2024/04/03 09:14:33;;;;;;;;;;;;;;;10.65;99.56;100356.81;106825;1275;22495;-47
2024/04/03 09:17:03;;;;;;;;;;;;;;;10.65;99.62;100355.93;106855;1274;22823;-46
2024/04/03 09:19:30;;;;;;;;;;;;;;;10.66;99.82;100355.30;106965;1274;22435;-45
2024/04/03 09:22:00;;;;;;;;;;;;;;;10.65;99.70;100359.80;107068;1275;22683;-46
2024/04/03 09:24:31;;;;;;;;;;;;;;;10.64;99.71;100360.18;106961;1274;23873;-46
2024/04/03 09:26:58;;;;;;;;;;;;;;;10.63;99.76;100355.84;107098;1274;22463;-45
2024/04/03 09:29:27;;;;;;;;;;;;;;;10.63;100.00;100355.02;106900;1274;22514;-46
2024/04/03 09:32:00;;;;;;;;;;;;;;;10.64;100.00;100356.86;106862;1275;25169;-46
2024/04/03 09:34:27;;;;;;;;;;;;;;;10.64;100.00;100354.38;106883;1274;25439;-48
2024/04/03 09:36:53;;;;;;;;;;;;;;;10.65;100.00;100357.30;107015;1274;22488;-46
2024/04/03 09:39:20;;;;;;;;;;;;;;;10.66;100.00;100353.89;107050;1274;22442;-49
2024/04/03 09:41:46;;;;;;;;;;;;;;;10.68;100.00;100353.04;107061;1275;25349;-49
2024/04/03 09:44:14;;;;;;;;;;;;;;;10.73;100.00;100355.05;106825;1274;25223;-49
2024/04/03 09:46:46;;;;;;;;;;;;;;;10.75;100.00;100350.66;107029;1274;22444;-51
2024/04/03 09:49:13;;;;;;;;;;;;;;;10.75;100.00;100354.02;106930;1274;25838;-50
2024/04/03 09:51:40;;;;;;;;;;;;;;;10.77;100.00;100351.63;106823;1274;22476;-46
2024/04/03 09:54:06;;;;;;;;;;;;;;;10.79;100.00;100347.77;106824;1274;22898;-45
2024/04/03 09:56:33;;;;;;;;;;;;;;;10.82;100.00;100346.69;106816;1274;24255;-45
2024/04/03 09:59:02;;;;;;;;;;;;;;;10.86;100.00;100347.45;106842;1274;22459;-45
2024/04/03 10:01:30;;;;;;;;;;;;;;;10.91;100.00;100343.08;106826;1274;24264;-45
2024/04/03 10:04:03;;;;;;;;;;;;;;;10.96;100.00;100342.77;106933;1269;24606;-46
2024/04/03 10:06:37;;;;;;;;;;;;;;;11.00;100.00;100339.47;107010;1274;22521;-45
2024/04/03 10:09:13;;;;;;;;;;;;;;;11.07;100.00;100337.77;107069;1274;22741;-47
2024/04/03 10:11:44;;;;;;;;;;;;;;;11.12;99.90;100337.45;106975;1270;25396;-46
2024/04/03 10:14:17;;;;;;;;;;;;;;;11.15;99.63;100341.53;106958;1275;22603;-47
2024/04/03 10:16:44;;;;;;;;;;;;;;;11.18;99.96;100345.75;106920;1274;22444;-45
2024/04/03 10:19:10;;;;;;;;;;;;;;;11.20;99.84;100339.92;106992;1275;22457;-46
2024/04/03 10:21:37;;;;;;;;;;;;;;;11.21;99.62;100340.02;106809;1274;24284;-46
2024/04/03 10:24:05;;;;;;;;;;;;;;;11.23;99.43;100341.83;107061;1275;25856;-44
2024/04/03 10:26:31;;;;;;;;;;;;;;;11.26;99.43;100341.98;107054;1274;22512;-45
2024/04/03 10:29:03;;;;;;;;;;;;;;;11.32;99.52;100345.17;106828;1275;22520;-46
2024/04/03 10:31:30;;;;;;;;;;;;;;;11.38;99.15;100338.73;106824;1274;22503;-46
2024/04/03 10:33:57;;;;;;;;;;;;;;;11.45;99.16;100337.92;106790;1274;25285;-45
2024/04/03 10:36:23;;;;;;;;;;;;;;;11.51;98.86;100341.90;106870;1275;25377;-45
2024/04/03 10:38:50;;;;;;;;;;;;;;;11.58;98.44;100335.20;106888;1274;24148;-48
2024/04/03 10:41:19;;;;;;;;;;;;;;;11.67;98.26;100331.25;106984;1274;22463;-47
2024/04/03 10:43:45;;;;;;;;;;;;;;;11.75;98.22;100328.56;106925;1274;25369;-46
2024/04/03 10:46:21;;;;;;;;;;;;;;;11.83;97.70;100334.04;106940;1274;22619;-46
2024/04/03 10:48:52;;;;;;;;;;;;;;;11.89;97.28;100334.70;107001;1274;22501;-45
2024/04/03 10:51:19;;;;;;;;;;;;;;;11.94;97.25;100334.19;107108;1274;22497;-45
2024/04/03 10:53:46;;;;;;;;;;;;;;;12.01;97.63;100327.52;107030;1275;25354;-45
2024/04/03 10:56:19;;;;;;;;;;;;;;;12.08;97.09;100328.08;106907;1274;22497;-46
2024/04/03 10:58:48;;;;;;;;;;;;;;;12.12;96.44;100330.58;107031;1274;22445;-47
2024/04/03 11:01:15;;;;;;;;;;;;;;;12.17;96.23;100326.06;107102;1274;24079;-45
2024/04/03 11:03:42;;;;;;;;;;;;;;;12.23;96.34;100328.25;106982;1274;22545;-46
2024/04/03 11:06:11;;;;;;;;;;;;;;;12.30;96.06;100330.42;107091;1275;22426;-45
2024/04/03 11:08:37;;;;;;;;;;;;;;;12.33;95.29;100325.73;107018;1275;22488;-47
2024/04/03 11:11:10;;;;;;;;;;;;;;;12.38;95.12;100326.98;106945;1274;25005;-47
2024/04/03 11:13:40;;;;;;;;;;;;;;;12.43;94.70;100327.73;106815;1274;22503;-48
2024/04/03 11:16:07;;;;;;;;;;;;;;;12.46;94.08;100328.92;106987;1274;25273;-50
2024/04/03 11:18:34;;;;;;;;;;;;;;;12.49;93.58;100332.23;107041;1275;22500;-49
2024/04/03 11:21:05;;;;;;;;;;;;;;;12.51;93.42;100331.86;107032;1274;25244;-50
2024/04/03 11:23:33;;;;;;;;;;;;;;;12.54;92.95;100338.05;107170;1271;25224;-50
2024/04/03 11:26:00;;;;;;;;;;;;;;;12.58;92.35;100338.17;107011;1274;25309;-47
2024/04/03 11:28:26;;;;;;;;;;;;;;;12.58;92.43;100336.17;107009;1270;25923;-47
2024/04/03 11:30:53;;;;;;;;;;;;;;;12.59;91.93;100331.52;106814;1274;25226;-46
2024/04/03 11:33:19;;;;;;;;;;;;;;;12.58;92.03;100333.02;106855;1275;22511;-46
2024/04/03 11:35:49;;;;;;;;;;;;;;;12.59;92.09;100333.27;107005;1274;24330;-46
2024/04/03 11:38:15;;;;;;;;;;;;;;;12.60;91.85;100329.11;107065;1274;22428;-46
2024/04/03 11:40:42;;;;;;;;;;;;;;;12.62;92.03;100332.52;107095;1274;24113;-47
2024/04/03 11:43:09;;;;;;;;;;;;;;;12.66;92.07;100331.00;107003;1275;22518;-45
2024/04/03 11:45:35;;;;;;;;;;;;;;;12.70;91.86;100333.88;106905;1274;22438;-46
2024/04/03 11:48:02;;;;;;;;;;;;;;;12.75;91.83;100330.48;106987;1274;22500;-47
2024/04/03 11:50:29;;;;;;;;;;;;;;;12.79;91.34;100331.83;107044;1275;22497;-45
2024/04/03 11:52:55;;;;;;;;;;;;;;;12.82;90.61;100339.95;106940;1274;22871;-48
2024/04/03 11:55:22;;;;;;;;;;;;;;;12.86;90.71;100341.77;107029;1274;25866;-46
2024/04/03 11:57:49;;;;;;;;;;;;;;;12.88;90.42;100338.61;106995;1274;22459;-48
2024/04/03 12:00:16;;;;;;;;;;;;;;;12.89;90.55;100334.21;106912;1274;22451;-47
2024/04/03 12:02:42;;;;;;;;;;;;;;;12.89;90.36;100331.06;106859;1275;25231;-46
2024/04/03 12:05:09;;;;;;;;;;;;;;;12.89;90.37;100331.79;106853;1274;25879;-46
2024/04/03 12:07:38;;;;;;;;;;;;;;;12.87;90.43;100333.84;106866;1275;24219;-45
2024/04/03 12:10:07;;;;;;;;;;;;;;;12.85;90.58;100338.95;107015;1274;23881;-47
2024/04/03 12:12:37;;;;;;;;;;;;;;;12.85;90.65;100335.95;107096;1270;22445;-47
2024/04/03 12:15:07;;;;;;;;;;;;;;;12.87;90.96;100335.64;107044;1274;24568;-47
2024/04/03 12:17:34;;;;;;;;;;;;;;;12.92;91.32;100333.30;106958;1274;24128;-46
2024/04/03 12:20:06;;;;;;;;;;;;;;;12.98;91.21;100334.81;107026;1271;22940;-47
2024/04/03 12:22:35;;;;;;;;;;;;;;;13.03;90.87;100334.61;107132;1273;22600;-47
2024/04/03 12:25:02;;;;;;;;;;;;;;;13.07;90.57;100335.42;106917;1274;25307;-47
2024/04/03 12:27:31;;;;;;;;;;;;;;;13.09;90.63;100337.20;106841;1274;25344;-50
2024/04/03 12:29:57;;;;;;;;;;;;;;;13.09;90.50;100336.48;107019;1275;22441;-50
2024/04/03 12:32:24;;;;;;;;;;;;;;;13.11;90.76;100337.73;106999;1274;22644;-46
2024/04/03 12:34:53;;;;;;;;;;;;;;;13.14;90.67;100336.85;107003;1275;25169;-46